Time;durP1;ratioP1;P1;durP2;ratioP2;P2;SDS_P1;SDS_P2;PMS_P1;PMS_P2;Temp;Humidity;BMP_temperature;BMP_pressure;BME280_temperature;BME280_humidity;BME280_pressure;Samples;Min_cycle;Max_cycle;Signal;HPM_P1;HPM_P2
2021/06/23 00:01:45;;;;;;;16.48;9.60;;;;;;;24.65;51.30;99493.78;5012933;28;20053;-85
2021/06/23 00:04:11;;;;;;;11.68;8.95;;;;;;;24.49;51.56;99486.00;4996956;28;20500;-84
2021/06/23 00:06:37;;;;;;;9.98;8.98;;;;;;;24.55;51.47;99489.78;4996030;28;20084;-84
2021/06/23 00:09:04;;;;;;;9.52;8.55;;;;;;;24.46;51.37;99476.31;4979602;28;20466;-84
2021/06/23 00:11:38;;;;;;;9.80;8.88;;;;;;;24.47;51.58;99475.25;4979414;28;20038;-84
2021/06/23 00:14:04;;;;;;;17.00;9.07;;;;;;;24.43;51.66;99462.22;4995556;28;20041;-83
2021/06/23 00:16:30;;;;;;;12.05;9.10;;;;;;;24.40;51.52;99459.91;4980937;28;20077;-84
2021/06/23 00:18:56;;;;;;;9.82;8.88;;;;;;;24.50;51.61;99467.72;4981452;28;20468;-85
2021/06/23 00:21:21;;;;;;;12.88;9.23;;;;;;;24.55;51.31;99470.63;4998955;28;20072;-85
2021/06/23 00:23:47;;;;;;;10.13;9.10;;;;;;;24.56;51.28;99466.84;5014654;28;20127;-86
2021/06/23 00:26:39;;;;;;;16.70;10.27;;;;;;;24.50;51.89;99465.81;4997893;28;20054;-86
2021/06/23 00:29:06;;;;;;;12.13;10.88;;;;;;;24.43;51.86;99460.34;4996177;28;20555;-84
2021/06/23 00:31:32;;;;;;;10.07;9.15;;;;;;;24.38;51.98;99460.09;4997825;28;20516;-89
2021/06/23 00:34:01;;;;;;;14.77;11.23;;;;;;;24.44;51.81;99456.53;4980621;28;20060;-88
2021/06/23 00:36:27;;;;;;;12.18;9.15;;;;;;;24.46;51.75;99449.00;4964535;28;20049;-89
2021/06/23 00:38:53;;;;;;;14.05;9.05;;;;;;;24.45;51.69;99447.31;5011834;28;20420;-84
2021/06/23 00:41:19;;;;;;;13.32;9.20;;;;;;;24.53;51.80;99459.09;4979525;28;20061;-85
2021/06/23 00:43:48;;;;;;;9.95;9.05;;;;;;;24.46;51.41;99443.53;4979511;28;20493;-81
2021/06/23 00:46:14;;;;;;;12.52;8.77;;;;;;;24.45;51.65;99458.25;4995939;28;20110;-83
2021/06/23 00:48:41;;;;;;;13.93;9.50;;;;;;;24.38;51.74;99460.09;4979290;28;20053;-83
2021/06/23 00:51:10;;;;;;;12.77;9.40;;;;;;;24.36;51.91;99464.09;4979795;28;20049;-82
2021/06/23 00:54:14;;;;;;;13.48;9.13;;;;;;;24.24;52.06;99447.47;4941633;29;20039;-82
2021/06/23 00:56:41;;;;;;;15.55;8.98;;;;;;;24.25;52.23;99446.41;4940495;29;20047;-82
2021/06/23 00:59:10;;;;;;;11.27;8.93;;;;;;;24.37;52.05;99447.50;4978023;28;20050;-82
2021/06/23 01:01:38;;;;;;;12.52;9.93;;;;;;;24.44;51.94;99456.53;4999900;28;20125;-84
2021/06/23 01:04:04;;;;;;;11.32;8.70;;;;;;;24.55;51.87;99454.25;4982827;28;20058;-83
2021/06/23 01:06:35;;;;;;;10.50;9.50;;;;;;;24.49;52.02;99452.38;4983549;28;20108;-84
2021/06/23 01:09:01;;;;;;;12.18;9.13;;;;;;;24.51;51.98;99456.56;4983061;28;20048;-82
2021/06/23 01:11:28;;;;;;;11.38;9.35;;;;;;;24.58;51.76;99457.41;4999164;28;20073;-81
2021/06/23 01:14:02;;;;;;;11.25;9.40;;;;;;;24.83;51.44;99451.28;4999002;28;20042;-81
2021/06/23 01:16:30;;;;;;;22.73;9.10;;;;;;;24.89;51.28;99458.63;5000005;28;20042;-84
2021/06/23 01:18:57;;;;;;;10.52;9.52;;;;;;;24.91;50.97;99445.59;4999579;28;20496;-81
2021/06/23 01:21:23;;;;;;;15.13;9.50;;;;;;;24.95;51.08;99452.31;5015476;28;20056;-84
2021/06/23 01:23:50;;;;;;;17.60;8.82;;;;;;;25.03;50.85;99457.56;5001054;28;20088;-82
2021/06/23 01:26:16;;;;;;;11.52;9.20;;;;;;;25.09;50.92;99442.19;5001759;28;20042;-82
2021/06/23 01:28:46;;;;;;;10.45;8.68;;;;;;;25.07;50.77;99427.88;4985857;28;20514;-83
2021/06/23 01:31:15;;;;;;;10.75;8.50;;;;;;;25.07;51.08;99449.75;4984245;28;20389;-82
2021/06/23 01:33:43;;;;;;;10.13;8.82;;;;;;;24.89;51.52;99432.13;4999121;28;20068;-82
2021/06/23 01:36:09;;;;;;;13.52;9.18;;;;;;;24.90;51.81;99439.28;4998976;28;20405;-83
2021/06/23 01:38:37;;;;;;;15.23;10.43;;;;;;;24.94;51.63;99440.53;4998584;28;20140;-83
2021/06/23 01:41:04;;;;;;;9.77;8.80;;;;;;;24.79;51.62;99420.81;4966351;28;20100;-82
2021/06/23 01:43:30;;;;;;;12.88;8.10;;;;;;;24.98;51.79;99445.59;4998627;28;20073;-82
2021/06/23 01:45:59;;;;;;;12.90;8.32;;;;;;;24.92;51.90;99445.38;4982619;28;20048;-83
2021/06/23 01:48:26;;;;;;;11.32;9.15;;;;;;;25.09;51.65;99442.19;5014677;28;20485;-83
2021/06/23 01:50:53;;;;;;;10.23;9.20;;;;;;;25.03;51.41;99423.91;4981988;28;20524;-82
2021/06/23 01:53:19;;;;;;;13.32;8.85;;;;;;;25.05;51.74;99441.78;4982833;28;20116;-82
2021/06/23 01:55:47;;;;;;;10.35;8.60;;;;;;;25.14;51.73;99448.72;4984303;28;20060;-82
2021/06/23 01:58:14;;;;;;;20.13;9.00;;;;;;;25.03;51.97;99432.09;4998645;28;20046;-82
2021/06/23 02:01:21;;;;;;;10.18;9.18;;;;;;;25.29;51.51;99444.91;4969592;28;20108;-82
2021/06/23 02:03:57;;;;;;;13.32;8.48;;;;;;;25.35;51.47;99441.28;4988680;28;20120;-82
2021/06/23 02:06:44;;;;;;;12.85;8.77;;;;;;;25.54;51.10;99442.25;4981787;28;20077;-82
2021/06/23 02:09:41;;;;;;;14.37;8.80;;;;;;;25.38;51.25;99419.78;4982397;28;20057;-83
2021/06/23 02:12:25;;;;;;;15.18;9.05;;;;;;;25.45;51.71;99452.59;5013115;28;20049;-83
2021/06/23 02:15:01;;;;;;;9.57;8.60;;;;;;;25.35;51.85;99446.75;4998475;28;20049;-84
2021/06/23 02:17:33;;;;;;;14.05;8.57;;;;;;;25.58;51.61;99454.47;4967755;28;20046;-83
2021/06/23 02:20:18;;;;;;;10.25;8.48;;;;;;;25.59;51.43;99453.41;4983983;28;20448;-82
2021/06/23 02:22:45;;;;;;;15.45;8.90;;;;;;;25.59;51.29;99453.41;4981703;28;20045;-84
2021/06/23 02:25:25;;;;;;;15.75;8.90;;;;;;;25.75;51.58;99455.63;4983369;28;20045;-82
2021/06/23 02:28:10;;;;;;;14.40;9.13;;;;;;;25.85;50.96;99450.56;4983981;28;20448;-83
2021/06/23 02:30:37;;;;;;;17.13;8.75;;;;;;;25.81;51.36;99457.53;4981320;28;20068;-85
2021/06/23 02:33:03;;;;;;;13.18;8.65;;;;;;;25.68;51.48;99463.88;4980957;28;20115;-83
2021/06/23 02:35:37;;;;;;;15.98;9.13;;;;;;;25.53;51.82;99466.03;4999032;28;20049;-84
2021/06/23 02:38:10;;;;;;;13.25;9.27;;;;;;;25.67;51.67;99477.78;4966907;28;20045;-84
2021/06/23 02:40:37;;;;;;;13.60;9.82;;;;;;;25.66;51.67;99465.16;4966207;28;20148;-85
2021/06/23 02:43:07;;;;;;;14.70;9.57;;;;;;;25.58;51.85;99459.94;4977577;28;20505;-86
2021/06/23 02:45:33;;;;;;;12.23;9.05;;;;;;;25.54;51.97;99458.66;4994115;28;20449;-86
2021/06/23 02:47:59;;;;;;;11.18;10.02;;;;;;;25.47;52.04;99455.16;4994295;28;20104;-80
2021/06/23 02:51:01;;;;;;;14.45;9.85;;;;;;;25.34;52.35;99443.19;4979307;28;20038;-85
2021/06/23 02:53:29;;;;;;;20.98;10.25;;;;;;;25.35;52.71;99458.56;4962860;28;20093;-85
2021/06/23 02:55:55;;;;;;;16.80;10.05;;;;;;;25.32;52.55;99458.16;4963496;28;20050;-85
2021/06/23 02:58:21;;;;;;;19.75;10.02;;;;;;;25.32;52.54;99445.31;4962810;28;20043;-81
2021/06/23 03:00:52;;;;;;;15.25;9.80;;;;;;;25.44;52.59;99457.25;4962662;28;20121;-84
2021/06/23 03:03:19;;;;;;;16.15;10.20;;;;;;;25.48;52.35;99445.88;4994291;28;20149;-89
2021/06/23 03:05:48;;;;;;;17.45;10.05;;;;;;;25.52;52.15;99447.13;4978065;28;20051;-86
2021/06/23 03:08:15;;;;;;;15.23;10.05;;;;;;;25.57;52.27;99456.34;4965681;28;20038;-86
2021/06/23 03:10:44;;;;;;;18.92;9.73;;;;;;;25.49;52.32;99442.06;4999423;28;20054;-83
2021/06/23 03:13:30;;;;;;;19.10;10.10;;;;;;;25.70;52.26;99449.97;4976539;28;20080;-84
2021/06/23 03:16:05;;;;;;;15.73;10.73;;;;;;;25.95;51.48;99446.50;4946442;28;20137;-83
2021/06/23 03:18:36;;;;;;;20.55;10.07;;;;;;;26.18;51.25;99457.75;4989913;28;20051;-82
2021/06/23 03:21:03;;;;;;;19.23;10.20;;;;;;;26.35;50.49;99455.28;4957785;28;20133;-81
2021/06/23 03:23:32;;;;;;;29.58;10.95;;;;;;;26.35;50.76;99441.59;4958962;28;20113;-86
2021/06/23 03:25:58;;;;;;;19.23;10.30;;;;;;;26.59;50.18;99459.13;4928201;28;20100;-83
2021/06/23 03:28:24;;;;;;;22.00;9.43;;;;;;;26.74;49.91;99451.41;4973932;28;20046;-80
2021/06/23 03:30:54;;;;;;;16.90;10.15;;;;;;;26.83;49.91;99447.31;4958796;28;20059;-79
2021/06/23 03:33:20;;;;;;;12.65;9.50;;;;;;;26.87;49.69;99451.28;4943371;28;20050;-82
2021/06/23 03:36:18;;;;;;;18.90;9.85;;;;;;;26.99;49.37;99454.09;4966287;28;20062;-84
2021/06/23 03:38:45;;;;;;;20.70;9.43;;;;;;;26.99;49.34;99458.75;4974053;28;20498;-81
2021/06/23 03:41:12;;;;;;;22.77;9.50;;;;;;;27.06;49.32;99449.38;4973599;28;20077;-82
2021/06/23 03:43:38;;;;;;;23.63;9.88;;;;;;;27.20;49.14;99452.03;4972947;28;20061;-84
2021/06/23 03:46:04;;;;;;;16.17;8.45;;;;;;;27.23;49.06;99459.78;4941411;28;20066;-84
2021/06/23 03:48:32;;;;;;;19.23;8.57;;;;;;;27.36;49.05;99460.47;4974358;28;20110;-83
2021/06/23 03:51:02;;;;;;;13.88;8.68;;;;;;;27.30;48.97;99455.06;4975186;28;20130;-82
2021/06/23 03:53:27;;;;;;;11.35;8.60;;;;;;;27.17;49.03;99439.59;4990500;28;20043;-87
2021/06/23 03:55:55;;;;;;;12.88;8.55;;;;;;;27.38;49.28;99451.16;4944721;28;20062;-87
2021/06/23 03:58:26;;;;;;;20.30;9.02;;;;;;;27.51;48.72;99448.28;4961186;28;20046;-81
2021/06/23 04:00:52;;;;;;;12.57;8.20;;;;;;;27.69;48.62;99442.75;4965539;28;20042;-80
2021/06/23 04:03:48;;;;;;;11.48;8.55;;;;;;;27.84;48.64;99445.97;4965868;28;20055;-81
2021/06/23 04:06:53;;;;;;;16.85;9.05;;;;;;;27.81;48.85;99445.59;4952933;29;20047;-83
2021/06/23 04:09:20;;;;;;;14.25;9.07;;;;;;;28.02;48.53;99433.22;4938141;29;20189;-81
2021/06/23 04:11:54;;;;;;;27.83;9.50;;;;;;;28.14;48.15;99431.38;4950018;28;20047;-81
2021/06/23 04:14:20;;;;;;;12.13;8.68;;;;;;;28.11;48.44;99434.59;4973415;28;20089;-83
2021/06/23 04:16:49;;;;;;;;;;;;;;;28.29;48.69;99437.25;4942307;28;20046;-80
2021/06/23 04:19:16;;;;;;;22.00;9.45;;;;;;;28.28;48.50;99424.59;4974710;28;20266;-82
2021/06/23 04:21:50;;;;;;;11.98;8.93;;;;;;;28.42;47.99;99416.16;4963494;28;20062;-83
2021/06/23 04:24:18;;;;;;;22.20;8.90;;;;;;;28.56;48.03;99434.94;4978328;28;20066;-83
2021/06/23 04:26:44;;;;;;;22.50;8.40;;;;;;;28.76;47.78;99437.31;4975087;28;20073;-82
2021/06/23 04:29:11;;;;;;;12.82;8.88;;;;;;;28.64;47.52;99431.00;4960920;28;20473;-85
2021/06/23 04:31:38;;;;;;;14.25;8.07;;;;;;;28.53;47.79;99431.81;4962467;28;20093;-84
2021/06/23 04:34:04;;;;;;;14.68;7.93;;;;;;;28.59;47.85;99430.06;4963308;28;20074;-85
2021/06/23 04:36:30;;;;;;;13.98;8.35;;;;;;;28.83;47.93;99436.38;4977665;28;20107;-84
2021/06/23 04:38:56;;;;;;;14.95;8.20;;;;;;;28.94;47.70;99441.03;5000048;28;20057;-84
2021/06/23 04:41:24;;;;;;;15.10;8.65;;;;;;;29.17;47.03;99434.72;4969712;28;20046;-85
2021/06/23 04:43:51;;;;;;;11.90;8.43;;;;;;;29.24;46.41;99436.25;4967316;28;20058;-79
2021/06/23 04:46:17;;;;;;;15.13;8.07;;;;;;;29.21;46.39;99439.47;4987660;28;20069;-81
2021/06/23 04:48:43;;;;;;;13.27;8.20;;;;;;;29.19;46.32;99436.16;4949304;28;20047;-80
2021/06/23 04:51:18;;;;;;;15.80;8.18;;;;;;;29.20;45.89;99437.81;4969805;28;20082;-80
2021/06/23 04:53:44;;;;;;;14.07;7.95;;;;;;;29.17;45.31;99438.28;4970293;28;20026;-80
2021/06/23 04:56:11;;;;;;;13.35;8.02;;;;;;;29.17;45.26;99437.47;4975001;28;20058;-85
2021/06/23 04:58:42;;;;;;;9.43;8.07;;;;;;;29.25;45.38;99429.66;4968765;28;20054;-81
2021/06/23 05:01:11;;;;;;;8.50;7.65;;;;;;;29.28;45.35;99420.91;4983687;28;20050;-81
2021/06/23 05:03:44;;;;;;;13.32;8.07;;;;;;;29.50;45.08;99434.88;4996375;28;20126;-82
2021/06/23 05:06:10;;;;;;;11.45;7.85;;;;;;;29.63;45.07;99430.19;4996855;28;20144;-84
2021/06/23 05:08:36;;;;;;;9.65;8.45;;;;;;;29.79;44.54;99423.91;4980304;28;20078;-82
2021/06/23 05:11:02;;;;;;;10.75;7.90;;;;;;;29.86;44.41;99423.72;4982118;28;20070;-82
2021/06/23 05:13:28;;;;;;;18.58;9.15;;;;;;;30.10;44.24;99422.53;4987224;28;20054;-81
2021/06/23 05:15:56;;;;;;;9.63;8.05;;;;;;;30.14;43.89;99429.22;4996463;28;20053;-81
2021/06/23 05:18:22;;;;;;;13.65;8.57;;;;;;;29.93;44.29;99408.72;4993589;28;20057;-80
2021/06/23 05:20:49;;;;;;;16.08;8.52;;;;;;;30.11;43.96;99421.44;4975798;28;20039;-83
2021/06/23 05:23:15;;;;;;;10.30;8.15;;;;;;;30.29;43.85;99427.84;4943569;28;20457;-83
2021/06/23 05:25:40;;;;;;;16.40;8.30;;;;;;;30.55;43.73;99421.69;4977213;28;20046;-84
2021/06/23 05:28:06;;;;;;;10.88;7.88;;;;;;;30.65;43.18;99408.03;4975371;28;20058;-84
2021/06/23 05:30:32;;;;;;;10.15;7.57;;;;;;;30.73;42.79;99421.41;4960576;28;20042;-84
2021/06/23 05:32:58;;;;;;;9.63;8.60;;;;;;;30.56;42.70;99409.56;4958497;28;20128;-83
2021/06/23 05:35:24;;;;;;;17.73;8.63;;;;;;;30.63;42.54;99424.00;4959335;28;20132;-82
2021/06/23 05:37:51;;;;;;;18.70;8.55;;;;;;;30.56;42.55;99428.84;4973964;28;20101;-84
2021/06/23 05:40:17;;;;;;;14.43;8.20;;;;;;;30.61;42.80;99414.31;4973572;28;20054;-83
2021/06/23 05:42:43;;;;;;;13.75;8.20;;;;;;;30.64;42.52;99424.84;4974589;28;20117;-84
2021/06/23 05:45:09;;;;;;;8.75;7.95;;;;;;;30.59;42.40;99411.81;4961824;28;20046;-84
2021/06/23 05:47:36;;;;;;;11.40;7.90;;;;;;;30.63;42.47;99415.72;4978558;28;20042;-83
2021/06/23 05:50:03;;;;;;;12.30;8.03;;;;;;;30.94;42.23;99416.22;4978798;28;20673;-84
2021/06/23 05:52:29;;;;;;;16.67;8.43;;;;;;;31.13;41.27;99423.09;4962551;28;20049;-84
2021/06/23 05:54:56;;;;;;;12.48;7.70;;;;;;;31.13;40.60;99406.53;4978494;28;20379;-84
2021/06/23 05:57:22;;;;;;;14.10;7.95;;;;;;;31.36;41.38;99410.19;4962321;28;20038;-84
2021/06/23 05:59:48;;;;;;;15.15;7.57;;;;;;;31.57;41.10;99412.09;4962729;28;20056;-82
2021/06/23 06:02:14;;;;;;;11.40;7.85;;;;;;;31.85;40.60;99407.41;4962021;28;20577;-81
2021/06/23 06:04:40;;;;;;;11.77;7.30;;;;;;;31.74;39.96;99414.75;4962096;28;20077;-83
2021/06/23 06:07:06;;;;;;;14.68;8.50;;;;;;;31.58;40.54;99419.28;4977969;28;20525;-84
2021/06/23 06:09:33;;;;;;;10.52;7.30;;;;;;;31.39;40.68;99418.78;4945542;28;20050;-82
2021/06/23 06:11:59;;;;;;;10.15;7.97;;;;;;;31.53;40.78;99408.19;4930138;28;20043;-81
2021/06/23 06:14:25;;;;;;;12.98;7.63;;;;;;;31.51;39.98;99406.75;4945606;28;20080;-83
2021/06/23 06:16:51;;;;;;;13.18;8.20;;;;;;;31.56;40.73;99401.31;4961960;28;20049;-82
2021/06/23 06:19:17;;;;;;;16.60;7.75;;;;;;;31.69;40.96;99404.50;4945840;28;20070;-82
2021/06/23 06:21:43;;;;;;;11.57;8.23;;;;;;;31.57;40.60;99403.81;4977686;28;20134;-83
2021/06/23 06:24:09;;;;;;;11.50;8.10;;;;;;;31.83;40.71;99395.81;4961474;28;20046;-84
2021/06/23 06:26:35;;;;;;;11.45;7.63;;;;;;;32.22;39.85;99401.16;4977540;28;20125;-83
2021/06/23 06:29:01;;;;;;;13.00;7.72;;;;;;;32.16;38.07;99403.06;4961631;28;20065;-82
2021/06/23 06:31:27;;;;;;;10.52;7.85;;;;;;;32.00;38.44;99395.72;4977439;28;20378;-82
2021/06/23 06:33:53;;;;;;;8.48;7.57;;;;;;;31.89;38.97;99405.81;4961606;28;20054;-82
2021/06/23 06:36:19;;;;;;;14.88;7.65;;;;;;;32.06;39.08;99384.44;4978052;28;20389;-83
2021/06/23 06:38:45;;;;;;;11.13;7.97;;;;;;;32.33;38.62;99397.41;4961600;28;20089;-82
2021/06/23 06:41:11;;;;;;;16.45;7.90;;;;;;;32.21;37.65;99405.03;4994841;28;20069;-82
2021/06/23 06:43:37;;;;;;;9.32;7.32;;;;;;;32.04;37.57;99397.69;4977448;28;20145;-82
2021/06/23 06:46:03;;;;;;;13.73;7.38;;;;;;;32.13;38.11;99396.13;4977604;28;20086;-84
2021/06/23 06:48:29;;;;;;;17.50;7.55;;;;;;;32.28;37.73;99384.34;4961308;28;20050;-83
2021/06/23 06:50:55;;;;;;;16.65;7.72;;;;;;;32.64;37.33;99399.31;4961367;28;20492;-84
2021/06/23 06:53:22;;;;;;;14.30;7.85;;;;;;;32.72;36.72;99392.44;4977259;28;20059;-83
2021/06/23 06:55:47;;;;;;;9.18;8.00;;;;;;;32.62;36.45;99417.31;4960469;28;20050;-81
2021/06/23 06:58:14;;;;;;;12.85;7.15;;;;;;;32.48;36.61;99396.72;4945961;28;20065;-83
2021/06/23 07:00:40;;;;;;;9.43;8.07;;;;;;;32.37;35.67;99404.06;4945097;28;20053;-82
2021/06/23 07:03:06;;;;;;;10.70;7.32;;;;;;;32.47;36.52;99409.72;4945542;28;20061;-84
2021/06/23 07:05:32;;;;;;;11.40;7.35;;;;;;;32.61;36.28;99386.03;4977567;28;20147;-83
2021/06/23 07:07:59;;;;;;;9.57;7.50;;;;;;;33.12;35.12;99375.25;4961066;28;20050;-84
2021/06/23 07:10:25;;;;;;;10.18;7.60;;;;;;;33.11;35.28;99390.22;4961967;28;20065;-83
2021/06/23 07:12:51;;;;;;;10.68;7.50;;;;;;;32.99;35.34;99373.00;4976915;28;20386;-83
2021/06/23 07:15:17;;;;;;;8.88;7.00;;;;;;;33.33;35.61;99378.13;4945046;28;20049;-83
2021/06/23 07:17:43;;;;;;;11.38;7.97;;;;;;;33.46;34.93;99388.72;4961073;28;20042;-83
2021/06/23 07:20:09;;;;;;;11.30;7.32;;;;;;;33.75;35.19;99378.00;4945156;28;20069;-82
2021/06/23 07:22:35;;;;;;;10.50;7.07;;;;;;;34.12;34.15;99362.28;4994200;28;20046;-83
2021/06/23 07:25:02;;;;;;;8.05;7.25;;;;;;;34.28;33.90;99350.88;4976444;28;20042;-83
2021/06/23 07:27:29;;;;;;;9.48;6.80;;;;;;;34.31;33.23;99389.19;4945102;28;20039;-81
2021/06/23 07:29:55;;;;;;;23.73;6.97;;;;;;;33.72;33.53;99380.50;4961082;28;20042;-82
2021/06/23 07:32:31;;;;;;;8.85;7.22;;;;;;;33.77;33.59;99381.31;4960293;28;20049;-82
2021/06/23 07:37:42;;;;;;;11.10;7.00;;;;;;;34.00;33.40;99354.19;4949371;28;20113;-82
2021/06/23 07:40:09;;;;;;;12.77;6.93;;;;;;;34.30;33.42;99353.38;4976643;28;20137;-83
2021/06/23 07:42:35;;;;;;;8.98;7.13;;;;;;;34.46;32.95;99355.03;4944675;28;20046;-83
2021/06/23 07:45:03;;;;;;;10.82;6.93;;;;;;;34.62;31.82;99347.53;4976218;28;20066;-83
2021/06/23 07:47:33;;;;;;;;;;;;;;;34.96;31.64;99347.72;4961406;28;20050;-82
2021/06/23 07:49:59;;;;;;;12.00;7.55;;;;;;;34.49;32.29;99339.75;4976099;28;19918;-82
2021/06/23 08:11:15;;;;;;;15.23;7.60;;;;;;;29.90;42.19;99331.22;4947072;28;20039;-85
2021/06/23 08:13:41;;;;;;;12.40;7.82;;;;;;;28.62;44.07;99303.88;4946189;28;20069;-86
2021/06/23 08:16:07;;;;;;;10.20;7.85;;;;;;;28.65;45.18;99308.06;4959787;28;20134;-81
2021/06/23 08:18:33;;;;;;;10.63;8.38;;;;;;;28.75;44.92;99309.13;4975517;28;20140;-83
2021/06/23 08:20:59;;;;;;;13.10;7.97;;;;;;;29.29;43.67;99320.72;4943620;28;20077;-81
2021/06/23 08:23:24;;;;;;;12.23;8.18;;;;;;;29.81;43.79;99306.00;4959965;28;20401;-81
2021/06/23 08:25:50;;;;;;;12.20;8.45;;;;;;;30.40;43.54;99313.88;4944142;28;20050;-83
2021/06/23 08:28:16;;;;;;;10.75;8.45;;;;;;;30.78;42.71;99312.22;4960367;28;20034;-82
2021/06/23 08:30:43;;;;;;;15.35;8.52;;;;;;;31.24;42.41;99304.50;4975652;28;20042;-80
2021/06/23 08:33:09;;;;;;;11.02;8.10;;;;;;;31.82;40.85;99302.91;4975373;28;20050;-83
2021/06/23 08:35:35;;;;;;;10.20;8.07;;;;;;;32.19;39.66;99291.06;4959611;28;20454;-82
2021/06/23 08:38:01;;;;;;;11.35;8.15;;;;;;;32.35;38.28;99301.97;4959791;28;20053;-82
2021/06/23 08:40:27;;;;;;;10.48;7.95;;;;;;;32.66;37.94;99302.19;4976068;28;20042;-82
2021/06/23 08:42:53;;;;;;;12.55;7.85;;;;;;;33.04;36.84;99292.69;4959468;28;20042;-81
2021/06/23 08:45:19;;;;;;;14.45;7.97;;;;;;;33.58;36.82;99308.09;4959712;28;20400;-82
2021/06/23 08:47:46;;;;;;;10.48;7.45;;;;;;;33.99;34.35;99286.81;4975963;28;20052;-82
2021/06/23 08:50:15;;;;;;;8.68;7.15;;;;;;;34.05;32.83;99269.06;4959906;28;20053;-81
2021/06/23 08:52:41;;;;;;;9.52;7.40;;;;;;;33.97;33.89;99290.97;4960021;28;20049;-82
2021/06/23 08:55:07;;;;;;;8.40;7.22;;;;;;;33.70;34.22;99283.75;4944035;28;20073;-82
2021/06/23 08:57:34;;;;;;;10.45;7.38;;;;;;;33.39;34.34;99270.91;4975701;28;20374;-81
2021/06/23 09:00:01;;;;;;;7.25;6.57;;;;;;;33.40;33.88;99267.88;4975583;28;20081;-80
2021/06/23 09:02:28;;;;;;;12.57;6.90;;;;;;;33.29;35.06;99267.03;4959889;28;20138;-81
2021/06/23 09:05:08;;;;;;;14.20;7.17;;;;;;;33.07;35.39;99258.94;4959685;28;20054;-79
2021/06/23 09:07:40;;;;;;;13.52;7.25;;;;;;;32.96;34.78;99262.78;4959895;28;20493;-80
2021/06/23 09:10:08;;;;;;;8.20;7.50;;;;;;;32.82;34.29;99261.56;4960631;28;20041;-81
2021/06/23 09:12:35;;;;;;;8.45;6.63;;;;;;;32.61;35.30;99244.88;4994248;28;20129;-81
2021/06/23 09:15:01;;;;;;;13.25;7.63;;;;;;;32.44;36.63;99247.00;4978670;28;20120;-78
2021/06/23 09:17:27;;;;;;;18.90;7.93;;;;;;;32.49;37.13;99241.47;4998386;28;20084;-80
2021/06/23 09:19:58;;;;;;;20.48;7.93;;;;;;;32.42;38.16;99257.50;4982531;28;20054;-81
2021/06/23 09:22:34;;;;;;;16.33;7.95;;;;;;;32.10;39.47;99271.38;4950278;28;20045;-86
2021/06/23 09:25:02;;;;;;;15.45;7.78;;;;;;;31.53;39.92;99294.91;4983189;28;20124;-81
2021/06/23 09:27:29;;;;;;;17.73;8.32;;;;;;;30.87;40.98;99286.66;4982859;28;20180;-79
2021/06/23 09:30:27;;;;;;;8.93;7.72;;;;;;;30.61;41.71;99304.78;4999287;28;20068;-82
2021/06/23 09:33:06;;;;;;;15.40;8.88;;;;;;;30.31;43.02;99363.09;4998864;28;20436;-83
2021/06/23 09:35:32;;;;;;;22.38;6.35;;;;;;;28.76;43.36;99409.81;5015808;28;20080;-81
2021/06/23 10:03:29;;;;;;;8.65;7.70;;;;;;;22.15;64.24;99285.28;5052502;27;1764719;-85
2021/06/23 10:05:56;;;;;;;9.73;8.27;;;;;;;22.66;62.86;99271.34;5057425;28;20046;-87
2021/06/23 10:08:23;;;;;;;9.02;8.23;;;;;;;23.29;61.43;99288.38;5092061;28;20084;-88
2021/06/23 10:10:49;;;;;;;10.57;8.65;;;;;;;23.91;59.63;99279.00;5109962;28;20425;-88
2021/06/23 10:13:15;;;;;;;10.05;7.80;;;;;;;24.52;57.89;99274.31;5092784;28;20043;-93
2021/06/23 10:15:42;;;;;;;13.88;8.23;;;;;;;25.07;56.68;99285.66;5109168;28;20039;-87
2021/06/23 10:18:08;;;;;;;9.57;8.23;;;;;;;25.60;55.10;99294.41;5108905;28;20123;-90
2021/06/23 10:20:33;;;;;;;12.43;7.90;;;;;;;26.26;53.42;99301.28;5107541;28;20409;-90
2021/06/23 10:23:00;;;;;;;7.72;6.93;;;;;;;26.88;50.40;99296.59;5099273;28;20089;-86
2021/06/23 10:25:25;;;;;;;8.40;7.15;;;;;;;27.31;47.99;99281.09;5091920;28;20039;-89
2021/06/23 10:27:53;;;;;;;7.90;7.10;;;;;;;28.18;48.43;99269.59;5075301;28;20046;-89
2021/06/23 10:30:20;;;;;;;7.78;7.10;;;;;;;29.56;48.19;99267.78;5092077;28;20048;-88
2021/06/23 10:32:46;;;;;;;11.90;7.15;;;;;;;30.39;43.76;99257.03;5100942;28;20040;-88
2021/06/23 10:35:12;;;;;;;8.57;6.60;;;;;;;30.40;43.89;99267.00;5106067;28;20049;-93
2021/06/23 10:37:39;;;;;;;9.25;6.57;;;;;;;30.19;42.89;99283.22;5110385;28;20044;-91
2021/06/23 10:40:12;;;;;;;10.18;6.70;;;;;;;29.75;43.87;99294.06;5075960;28;20070;-92
2021/06/23 10:42:38;;;;;;;7.35;6.60;;;;;;;29.46;45.09;99314.44;5075885;28;20508;-91
2021/06/23 10:45:05;;;;;;;9.85;8.07;;;;;;;29.24;46.14;99323.38;5109218;28;20134;-91
2021/06/23 10:47:39;;;;;;;17.05;8.18;;;;;;;29.24;46.61;99334.38;5093131;28;20050;-88
2021/06/23 10:50:09;;;;;;;18.55;8.65;;;;;;;29.08;47.46;99359.94;5091180;28;20203;-83
2021/06/23 10:52:44;;;;;;;9.45;8.10;;;;;;;28.60;49.02;99332.72;5109665;28;20046;-86
2021/06/23 10:55:13;;;;;;;22.20;8.15;;;;;;;28.12;50.27;99351.06;5108671;28;20101;-91
2021/06/23 10:57:45;;;;;;;15.10;8.75;;;;;;;27.77;51.43;99357.31;5101475;28;20135;-83
2021/06/23 11:00:11;;;;;;;13.07;9.00;;;;;;;27.48;51.27;99369.13;5092294;28;20104;-85
2021/06/23 11:02:42;;;;;;;13.80;8.50;;;;;;;27.27;51.49;99371.31;5094581;28;20487;-83
2021/06/23 11:05:17;;;;;;;20.77;7.82;;;;;;;27.06;51.62;99377.22;5091554;28;20048;-83
2021/06/23 11:07:52;;;;;;;14.10;7.70;;;;;;;26.78;51.91;99389.56;5091462;28;20127;-83
2021/06/23 11:10:25;;;;;;;18.73;8.63;;;;;;;26.59;52.18;99371.38;5075134;28;20123;-83
2021/06/23 11:13:08;;;;;;;21.00;9.23;;;;;;;26.58;51.88;99370.56;5087013;28;20054;-82
2021/06/23 11:15:36;;;;;;;24.75;9.80;;;;;;;26.66;52.08;99372.16;5077651;28;20517;-83
2021/06/23 11:18:31;;;;;;;29.20;9.90;;;;;;;26.78;51.60;99375.84;5077163;28;20094;-82
2021/06/23 11:21:13;;;;;;;31.05;12.00;;;;;;;26.85;51.12;99373.00;5077234;28;20062;-82
2021/06/23 11:23:53;;;;;;;42.35;12.85;;;;;;;26.95;50.72;99361.53;5061291;28;20048;-81
2021/06/23 11:26:19;;;;;;;32.90;12.23;;;;;;;27.11;50.63;99363.66;5060481;28;20131;-83
2021/06/23 11:28:57;;;;;;;36.00;12.35;;;;;;;27.27;50.76;99365.81;5095014;28;20441;-81
2021/06/23 11:31:41;;;;;;;37.40;13.25;;;;;;;27.47;50.20;99372.94;5044064;28;20081;-82
2021/06/23 11:34:08;;;;;;;34.72;13.35;;;;;;;27.56;50.39;99372.38;5088481;28;20043;-81
2021/06/23 11:36:33;;;;;;;37.22;12.82;;;;;;;27.58;50.44;99374.91;5095130;28;20383;-82
2021/06/23 11:38:59;;;;;;;27.38;12.40;;;;;;;27.63;50.55;99375.03;5060596;28;20399;-82
2021/06/23 11:41:25;;;;;;;25.92;11.80;;;;;;;27.61;50.71;99377.19;5095079;28;20126;-83
2021/06/23 11:43:51;;;;;;;22.30;11.02;;;;;;;27.55;51.08;99394.56;5060220;28;20044;-82
2021/06/23 11:46:17;;;;;;;20.40;10.20;;;;;;;27.35;50.87;99387.44;5094550;28;20051;-82
2021/06/23 11:48:43;;;;;;;19.45;11.02;;;;;;;26.94;51.97;99401.84;5094796;28;20131;-82
2021/06/23 11:51:10;;;;;;;39.28;12.55;;;;;;;26.70;52.61;99406.28;5077002;28;20057;-81
2021/06/23 11:53:36;;;;;;;39.47;12.80;;;;;;;26.39;53.51;99402.53;5094909;28;20079;-81
2021/06/23 11:56:02;;;;;;;46.03;15.73;;;;;;;26.37;53.54;99412.91;5094839;28;20048;-82
2021/06/23 11:58:29;;;;;;;45.08;16.52;;;;;;;26.33;53.84;99410.84;5059891;28;20036;-82
2021/06/23 12:00:55;;;;;;;41.78;16.70;;;;;;;26.28;54.03;99414.22;5059669;28;20044;-81
2021/06/23 12:03:21;;;;;;;47.05;19.23;;;;;;;26.22;53.84;99401.44;5059781;28;20078;-82
2021/06/23 12:05:47;;;;;;;46.42;21.42;;;;;;;26.01;54.91;99434.66;5070471;28;20039;-83
2021/06/23 12:08:13;;;;;;;36.35;16.50;;;;;;;25.94;53.82;99436.59;5094367;28;20036;-82
2021/06/23 12:10:40;;;;;;;24.75;11.02;;;;;;;25.83;54.16;99440.88;5094684;28;20117;-83
2021/06/23 12:13:06;;;;;;;12.00;9.48;;;;;;;25.59;53.89;99426.03;5059736;28;20520;-81
2021/06/23 12:15:33;;;;;;;12.80;9.25;;;;;;;25.64;53.56;99398.81;5059745;28;20040;-82
2021/06/23 12:18:00;;;;;;;12.70;8.20;;;;;;;25.61;53.97;99385.56;5043283;28;20044;-81
2021/06/23 12:20:28;;;;;;;12.77;8.32;;;;;;;25.63;53.49;99395.25;5094440;28;20044;-82
2021/06/23 12:22:58;;;;;;;12.45;8.35;;;;;;;25.66;53.56;99402.19;5076450;28;20064;-82